Time,TemperatureF,DewpointF,PressureIn,WindDirection,WindDirectionDegrees,WindSpeedMPH,WindSpeedGustMPH,Humidity,HourlyPrecipIn,Conditions,Clouds,dailyrainin,SoftwareType,DateUTC
2017-12-16 00:02:00,10.2,5.0,29.82,NNW,348,0.0,0.0,79,0.00,,---,0.00,VWS V15.00,2017-12-16 05:02:00,
2017-12-16 00:05:00,10.2,5.3,29.82,NNW,347,0.0,0.0,80,0.00,,---,0.00,VWS V15.00,2017-12-16 05:05:00,
2017-12-16 00:10:00,10.5,5.8,29.82,NNW,347,0.0,0.0,81,0.00,,---,0.00,VWS V15.00,2017-12-16 05:10:00,
2017-12-16 00:11:00,10.6,5.9,29.82,NNW,347,0.0,0.0,81,0.00,,---,0.00,VWS V15.00,2017-12-16 05:11:00,
2017-12-16 00:17:00,10.5,5.3,29.82,NNW,347,0.0,0.0,79,0.00,,---,0.00,VWS V15.00,2017-12-16 05:17:00,
2017-12-16 00:22:00,10.4,5.2,29.82,SW,231,0.0,1.0,79,0.00,,---,0.00,VWS V15.00,2017-12-16 05:22:00,
2017-12-16 00:25:00,10.2,5.3,29.82,SW,231,0.0,0.0,80,0.00,,---,0.00,VWS V15.00,2017-12-16 05:25:00,
2017-12-16 00:26:00,10.2,5.3,29.82,SW,231,0.0,0.0,80,0.00,,---,0.00,VWS V15.00,2017-12-16 05:26:00,
2017-12-16 00:32:00,10.2,5.3,29.81,SW,231,0.0,0.0,80,0.00,,---,0.00,VWS V15.00,2017-12-16 05:32:00,
2017-12-16 00:37:00,10.3,5.4,29.81,SW,231,0.0,0.0,80,0.00,,---,0.00,VWS V15.00,2017-12-16 05:37:00,
2017-12-16 00:42:00,10.5,6.1,29.81,SW,231,0.0,0.0,82,0.00,,---,0.00,VWS V15.00,2017-12-16 05:42:00,
2017-12-16 00:47:00,10.5,5.8,29.81,SW,231,0.0,0.0,81,0.00,,---,0.00,VWS V15.00,2017-12-16 05:47:00,
2017-12-16 00:52:00,10.4,5.5,29.81,SW,231,0.0,0.0,80,0.00,,---,0.00,VWS V15.00,2017-12-16 05:52:00,
2017-12-16 00:57:00,10.2,5.3,29.81,SW,231,0.0,0.0,80,0.00,,---,0.00,VWS V15.00,2017-12-16 05:57:00,
2017-12-16 01:02:00,9.9,5.2,29.81,SW,231,0.0,0.0,81,0.00,,---,0.00,VWS V15.00,2017-12-16 06:02:00,
2017-12-16 01:07:00,9.7,5.1,29.81,SW,231,0.0,0.0,81,0.00,,---,0.00,VWS V15.00,2017-12-16 06:07:00,
2017-12-16 01:12:00,9.8,5.2,29.80,SW,231,0.0,0.0,81,0.00,,---,0.00,VWS V15.00,2017-12-16 06:12:00,
2017-12-16 01:17:00,9.8,5.2,29.80,SW,231,0.0,0.0,81,0.00,,---,0.00,VWS V15.00,2017-12-16 06:17:00,
2017-12-16 01:18:00,9.8,5.2,29.80,SW,231,0.0,0.0,81,0.00,,---,0.00,VWS V15.00,2017-12-16 06:18:00,
2017-12-16 01:23:00,10.0,5.1,29.80,SW,231,0.0,0.0,80,0.00,,---,0.00,VWS V15.00,2017-12-16 06:23:00,
2017-12-16 01:29:00,10.4,5.5,29.80,SW,231,0.0,1.0,80,0.00,,---,0.00,VWS V15.00,2017-12-16 06:29:00,
2017-12-16 01:30:00,10.4,5.2,29.80,SW,231,0.0,1.0,79,0.00,,---,0.00,VWS V15.00,2017-12-16 06:30:00,
2017-12-16 01:36:00,10.5,5.3,29.79,SW,231,0.0,1.0,79,0.00,,---,0.00,VWS V15.00,2017-12-16 06:36:00,
2017-12-16 01:39:00,10.2,5.0,29.79,SW,231,0.0,1.0,79,0.00,,---,0.00,VWS V15.00,2017-12-16 06:39:00,
2017-12-16 01:44:00,10.1,4.9,29.79,SW,231,0.0,0.0,79,0.00,,---,0.00,VWS V15.00,2017-12-16 06:44:00,
2017-12-16 01:49:00,10.2,5.3,29.79,SW,231,0.0,0.0,80,0.00,,---,0.00,VWS V15.00,2017-12-16 06:49:00,
2017-12-16 01:55:00,10.2,5.0,29.79,SW,233,0.0,0.0,79,0.00,,---,0.00,VWS V15.00,2017-12-16 06:55:00,
2017-12-16 01:57:00,10.1,5.2,29.79,SW,233,0.0,0.0,80,0.00,,---,0.00,VWS V15.00,2017-12-16 06:57:00,
2017-12-16 02:01:00,10.0,5.1,29.79,SW,233,0.0,0.0,80,0.00,,---,0.00,VWS V15.00,2017-12-16 07:01:00,
2017-12-16 02:03:00,10.0,5.1,29.79,SW,233,0.0,0.0,80,0.00,,---,0.00,VWS V15.00,2017-12-16 07:03:00,
2017-12-16 02:08:00,10.2,5.3,29.79,SW,233,0.0,0.0,80,0.00,,---,0.00,VWS V15.00,2017-12-16 07:08:00,
2017-12-16 02:14:00,10.2,5.5,29.79,SW,233,0.0,0.0,81,0.00,,---,0.00,VWS V15.00,2017-12-16 07:14:00,
2017-12-16 02:19:00,10.2,5.5,29.79,SW,234,0.0,0.0,81,0.00,,---,0.00,VWS V15.00,2017-12-16 07:19:00,
2017-12-16 02:23:00,10.0,5.1,29.79,SW,234,0.0,0.0,80,0.00,,---,0.00,VWS V15.00,2017-12-16 07:23:00,
2017-12-16 02:33:00,10.1,5.2,29.79,NW,316,0.0,0.0,80,0.00,,---,0.00,VWS V15.00,2017-12-16 07:33:00,
2017-12-16 02:38:00,9.6,4.4,29.79,NW,316,0.0,0.0,79,0.00,,---,0.00,VWS V15.00,2017-12-16 07:38:00,
2017-12-16 02:43:00,9.2,4.3,29.79,NW,316,0.0,0.0,80,0.00,,---,0.00,VWS V15.00,2017-12-16 07:43:00,
2017-12-16 02:48:00,9.1,4.2,29.79,NW,316,0.0,0.0,80,0.00,,---,0.00,VWS V15.00,2017-12-16 07:48:00,
2017-12-16 02:50:00,9.0,4.1,29.79,NW,316,0.0,0.0,80,0.00,,---,0.00,VWS V15.00,2017-12-16 07:50:00,
2017-12-16 02:55:00,9.1,3.9,29.79,NW,316,0.0,0.0,79,0.00,,---,0.00,VWS V15.00,2017-12-16 07:55:00,
2017-12-16 03:00:00,8.9,3.7,29.79,NW,316,0.0,0.0,79,0.00,,---,0.00,VWS V15.00,2017-12-16 08:00:00,
2017-12-16 03:06:00,8.5,3.6,29.79,NW,316,0.0,0.0,80,0.00,,---,0.00,VWS V15.00,2017-12-16 08:06:00,
2017-12-16 03:11:00,8.4,3.5,29.78,NW,316,0.0,0.0,80,0.00,,---,0.00,VWS V15.00,2017-12-16 08:11:00,
2017-12-16 03:16:00,8.6,3.7,29.79,NW,316,0.0,0.0,80,0.00,,---,0.00,VWS V15.00,2017-12-16 08:16:00,
2017-12-16 03:21:00,8.2,3.3,29.78,WSW,243,0.0,0.0,80,0.00,,---,0.00,VWS V15.00,2017-12-16 08:21:00,
2017-12-16 03:26:00,8.1,3.2,29.78,WSW,243,0.0,0.0,80,0.00,,---,0.00,VWS V15.00,2017-12-16 08:26:00,
2017-12-16 03:29:00,8.2,3.6,29.78,WSW,243,0.0,0.0,81,0.00,,---,0.00,VWS V15.00,2017-12-16 08:29:00,
2017-12-16 03:34:00,8.5,3.6,29.78,WSW,243,0.0,0.0,80,0.00,,---,0.00,VWS V15.00,2017-12-16 08:34:00,
2017-12-16 03:40:00,8.2,3.0,29.78,SW,226,0.0,0.0,79,0.00,,---,0.00,VWS V15.00,2017-12-16 08:40:00,
2017-12-16 03:45:00,7.6,2.7,29.79,SW,226,0.0,0.0,80,0.00,,---,0.00,VWS V15.00,2017-12-16 08:45:00,
2017-12-16 03:50:00,7.9,3.3,29.79,West,273,0.0,1.0,81,0.00,,---,0.00,VWS V15.00,2017-12-16 08:50:00,
2017-12-16 03:55:00,8.8,3.9,29.79,WNW,285,0.0,1.0,80,0.00,,---,0.00,VWS V15.00,2017-12-16 08:55:00,
2017-12-16 04:00:00,8.8,3.6,29.79,NW,309,0.0,1.0,79,0.00,,---,0.00,VWS V15.00,2017-12-16 09:00:00,
2017-12-16 04:11:00,7.5,2.1,29.79,SW,230,0.0,1.0,78,0.00,,---,0.00,VWS V15.00,2017-12-16 09:11:00,
2017-12-16 04:16:00,6.8,2.5,29.79,NE,34,0.0,0.0,82,0.00,,---,0.00,VWS V15.00,2017-12-16 09:16:00,
2017-12-16 04:19:00,7.3,3.2,29.79,NE,34,0.0,0.0,83,0.00,,---,0.00,VWS V15.00,2017-12-16 09:19:00,
2017-12-16 04:25:00,8.2,3.6,29.79,NE,34,0.0,0.0,81,0.00,,---,0.00,VWS V15.00,2017-12-16 09:25:00,
2017-12-16 04:30:00,7.4,2.5,29.79,NE,34,0.0,1.0,80,0.00,,---,0.00,VWS V15.00,2017-12-16 09:30:00,
2017-12-16 04:40:00,6.6,2.3,29.79,NNE,33,0.0,1.0,82,0.00,,---,0.00,VWS V15.00,2017-12-16 09:40:00,
2017-12-16 04:43:00,6.3,2.0,29.79,NNE,33,0.0,1.0,82,0.00,,---,0.00,VWS V15.00,2017-12-16 09:43:00,
2017-12-16 04:48:00,6.6,2.5,29.80,North,352,0.0,0.0,83,0.00,,---,0.00,VWS V15.00,2017-12-16 09:48:00,
2017-12-16 04:53:00,6.1,1.5,29.80,North,352,0.0,0.0,81,0.00,,---,0.00,VWS V15.00,2017-12-16 09:53:00,
2017-12-16 04:58:00,5.9,1.9,29.81,North,352,0.0,0.0,83,0.00,,---,0.00,VWS V15.00,2017-12-16 09:58:00,
2017-12-16 05:03:00,6.0,2.2,29.81,North,352,0.0,0.0,84,0.00,,---,0.00,VWS V15.00,2017-12-16 10:03:00,
2017-12-16 05:09:00,6.4,2.6,29.81,North,352,0.0,0.0,84,0.00,,---,0.00,VWS V15.00,2017-12-16 10:09:00,
2017-12-16 05:13:00,6.9,2.8,29.81,North,352,0.0,0.0,83,0.00,,---,0.00,VWS V15.00,2017-12-16 10:13:00,
2017-12-16 05:18:00,6.0,1.2,29.82,SW,217,0.0,1.0,80,0.00,,---,0.00,VWS V15.00,2017-12-16 10:18:00,
2017-12-16 05:23:00,5.4,1.1,29.82,SW,217,0.0,1.0,82,0.00,,---,0.00,VWS V15.00,2017-12-16 10:23:00,
2017-12-16 05:29:00,5.2,1.2,29.82,SW,230,0.0,0.0,83,0.00,,---,0.00,VWS V15.00,2017-12-16 10:29:00,
2017-12-16 05:34:00,5.4,1.6,29.82,SW,229,0.0,0.0,84,0.00,,---,0.00,VWS V15.00,2017-12-16 10:34:00,
2017-12-16 05:39:00,5.5,1.7,29.82,NE,41,0.0,0.0,84,0.00,,---,0.00,VWS V15.00,2017-12-16 10:39:00,
2017-12-16 05:42:00,5.9,2.1,29.82,NE,41,0.0,0.0,84,0.00,,---,0.00,VWS V15.00,2017-12-16 10:42:00,
2017-12-16 05:44:00,6.1,2.3,29.82,NE,41,0.0,0.0,84,0.00,,---,0.00,VWS V15.00,2017-12-16 10:44:00,
2017-12-16 05:49:00,6.0,2.0,29.82,NE,41,0.0,0.0,83,0.00,,---,0.00,VWS V15.00,2017-12-16 10:49:00,
2017-12-16 05:54:00,5.3,1.0,29.82,NE,41,0.0,0.0,82,0.00,,---,0.00,VWS V15.00,2017-12-16 10:54:00,
2017-12-16 05:57:00,4.9,0.6,29.82,NE,41,0.0,0.0,82,0.00,,---,0.00,VWS V15.00,2017-12-16 10:57:00,
2017-12-16 06:02:00,4.1,-0.2,29.83,NE,41,0.0,0.0,82,0.00,,---,0.00,VWS V15.00,2017-12-16 11:02:00,
2017-12-16 06:07:00,4.2,0.7,29.83,NE,41,0.0,0.0,85,0.00,,---,0.00,VWS V15.00,2017-12-16 11:07:00,
2017-12-16 06:08:00,4.2,0.7,29.83,NE,41,0.0,0.0,85,0.00,,---,0.00,VWS V15.00,2017-12-16 11:08:00,
2017-12-16 06:09:00,4.4,1.1,29.83,NE,41,0.0,0.0,86,0.00,,---,0.00,VWS V15.00,2017-12-16 11:09:00,
2017-12-16 06:14:00,4.9,1.6,29.83,NE,41,0.0,0.0,86,0.00,,---,0.00,VWS V15.00,2017-12-16 11:14:00,
2017-12-16 06:19:00,5.5,2.0,29.83,NE,41,0.0,1.0,85,0.00,,---,0.00,VWS V15.00,2017-12-16 11:19:00,
2017-12-16 06:24:00,5.4,1.4,29.83,NE,41,0.0,0.0,83,0.00,,---,0.00,VWS V15.00,2017-12-16 11:24:00,
2017-12-16 06:29:00,5.6,1.8,29.83,WSW,248,1.0,1.0,84,0.00,,---,0.00,VWS V15.00,2017-12-16 11:29:00,
2017-12-16 06:31:00,5.4,1.4,29.83,WSW,247,0.0,1.0,83,0.00,,---,0.00,VWS V15.00,2017-12-16 11:31:00,
2017-12-16 06:39:00,4.7,0.7,29.84,WSW,248,0.0,0.0,83,0.00,,---,0.00,VWS V15.00,2017-12-16 11:39:00,
2017-12-16 06:45:00,4.5,1.0,29.84,WSW,247,0.0,0.0,85,0.00,,---,0.00,VWS V15.00,2017-12-16 11:45:00,
2017-12-16 06:50:00,4.2,0.4,29.84,WSW,239,0.0,1.0,84,0.00,,---,0.00,VWS V15.00,2017-12-16 11:50:00,
2017-12-16 06:52:00,4.0,0.2,29.84,WSW,239,0.0,1.0,84,0.00,,---,0.00,VWS V15.00,2017-12-16 11:52:00,
2017-12-16 06:57:00,4.1,0.6,29.84,West,265,0.0,1.0,85,0.00,,---,0.00,VWS V15.00,2017-12-16 11:57:00,
2017-12-16 07:02:00,4.3,1.0,29.85,WNW,285,0.0,1.0,86,0.00,,---,0.00,VWS V15.00,2017-12-16 12:02:00,
2017-12-16 07:07:00,4.2,0.7,29.85,WNW,285,0.0,0.0,85,0.00,,---,0.00,VWS V15.00,2017-12-16 12:07:00,
2017-12-16 07:09:00,4.3,0.8,29.85,WNW,285,0.0,0.0,85,0.00,,---,0.00,VWS V15.00,2017-12-16 12:09:00,
2017-12-16 07:14:00,4.8,1.5,29.85,WNW,285,0.0,0.0,86,0.00,,---,0.00,VWS V15.00,2017-12-16 12:14:00,
2017-12-16 07:16:00,4.9,1.6,29.85,WNW,285,0.0,0.0,86,0.00,,---,0.00,VWS V15.00,2017-12-16 12:16:00,
2017-12-16 07:22:00,4.8,1.0,29.85,West,262,0.0,1.0,84,0.00,,---,0.00,VWS V15.00,2017-12-16 12:22:00,
2017-12-16 07:27:00,4.2,-0.1,29.85,WSW,257,0.0,1.0,82,0.00,,---,0.00,VWS V15.00,2017-12-16 12:27:00,
2017-12-16 07:28:00,4.1,0.1,29.85,WSW,257,0.0,1.0,83,0.00,,---,0.00,VWS V15.00,2017-12-16 12:28:00,
2017-12-16 07:33:00,4.0,0.5,29.85,WSW,257,0.0,1.0,85,0.00,,---,0.00,VWS V15.00,2017-12-16 12:33:00,
2017-12-16 07:38:00,4.0,0.5,29.85,WSW,257,0.0,0.0,85,0.00,,---,0.00,VWS V15.00,2017-12-16 12:38:00,
2017-12-16 07:43:00,4.2,0.9,29.85,WSW,257,0.0,0.0,86,0.00,,---,0.00,VWS V15.00,2017-12-16 12:43:00,
2017-12-16 07:48:00,4.4,0.9,29.85,WSW,257,0.0,0.0,85,0.00,,---,0.00,VWS V15.00,2017-12-16 12:48:00,
2017-12-16 07:49:00,4.4,0.9,29.85,WSW,257,0.0,0.0,85,0.00,,---,0.00,VWS V15.00,2017-12-16 12:49:00,
2017-12-16 07:54:00,4.7,1.4,29.86,WSW,257,0.0,0.0,86,0.00,,---,0.00,VWS V15.00,2017-12-16 12:54:00,
2017-12-16 07:59:00,5.0,1.5,29.86,WSW,257,0.0,0.0,85,0.00,,---,0.00,VWS V15.00,2017-12-16 12:59:00,
2017-12-16 08:01:00,5.2,1.9,29.86,NNW,348,0.0,0.0,86,0.00,,---,0.00,VWS V15.00,2017-12-16 13:01:00,
2017-12-16 08:06:00,6.0,2.2,29.86,WNW,282,0.0,1.0,84,0.00,,---,0.00,VWS V15.00,2017-12-16 13:06:00,
2017-12-16 08:08:00,6.2,2.4,29.86,WSW,252,0.0,1.0,84,0.00,,---,0.00,VWS V15.00,2017-12-16 13:08:00,
2017-12-16 08:13:00,6.6,2.3,29.86,WSW,252,0.0,1.0,82,0.00,,---,0.00,VWS V15.00,2017-12-16 13:13:00,
2017-12-16 08:18:00,7.4,3.1,29.86,WSW,252,0.0,0.0,82,0.00,,---,0.00,VWS V15.00,2017-12-16 13:18:00,
2017-12-16 08:21:00,7.7,3.4,29.86,WSW,252,0.0,0.0,82,0.00,,---,0.00,VWS V15.00,2017-12-16 13:21:00,
2017-12-16 08:24:00,7.3,2.2,29.86,WSW,252,0.0,0.0,79,0.00,,---,0.00,VWS V15.00,2017-12-16 13:24:00,
2017-12-16 08:29:00,7.4,2.8,29.86,WSW,243,0.0,1.0,81,0.00,,---,0.00,VWS V15.00,2017-12-16 13:29:00,
2017-12-16 08:34:00,8.0,3.1,29.86,WSW,240,0.0,0.0,80,0.00,,---,0.00,VWS V15.00,2017-12-16 13:34:00,
2017-12-16 08:35:00,8.1,3.2,29.86,WSW,240,0.0,0.0,80,0.00,,---,0.00,VWS V15.00,2017-12-16 13:35:00,
2017-12-16 08:40:00,8.8,3.6,29.86,WSW,240,0.0,0.0,79,0.00,,---,0.00,VWS V15.00,2017-12-16 13:40:00,
2017-12-16 08:45:00,9.8,4.6,29.86,WSW,240,0.0,0.0,79,0.00,,---,0.00,VWS V15.00,2017-12-16 13:45:00,
2017-12-16 08:50:00,10.5,4.7,29.86,WSW,240,0.0,0.0,77,0.00,,---,0.00,VWS V15.00,2017-12-16 13:50:00,
2017-12-16 08:53:00,10.9,5.1,29.87,WSW,240,0.0,0.0,77,0.00,,---,0.00,VWS V15.00,2017-12-16 13:53:00,
2017-12-16 08:58:00,11.9,5.8,29.86,WSW,240,0.0,0.0,76,0.00,,---,0.00,VWS V15.00,2017-12-16 13:58:00,
2017-12-16 09:03:00,12.5,6.1,29.87,WSW,240,0.0,0.0,75,0.00,,---,0.00,VWS V15.00,2017-12-16 14:03:00,
2017-12-16 09:08:00,13.1,6.7,29.87,South,179,0.0,0.0,75,0.00,,---,0.00,VWS V15.00,2017-12-16 14:08:00,
2017-12-16 09:11:00,13.5,7.1,29.87,South,179,0.0,0.0,75,0.00,,---,0.00,VWS V15.00,2017-12-16 14:11:00,
2017-12-16 09:16:00,14.3,7.6,29.87,South,179,0.0,0.0,74,0.00,,---,0.00,VWS V15.00,2017-12-16 14:16:00,
2017-12-16 09:18:00,14.6,7.5,29.87,South,179,0.0,0.0,73,0.00,,---,0.00,VWS V15.00,2017-12-16 14:18:00,
2017-12-16 09:23:00,14.8,7.1,29.87,SSW,212,0.0,0.0,71,0.00,,---,0.00,VWS V15.00,2017-12-16 14:23:00,
2017-12-16 09:26:00,15.2,7.5,29.87,SSW,212,0.0,0.0,71,0.00,,---,0.00,VWS V15.00,2017-12-16 14:26:00,
2017-12-16 09:31:00,15.3,7.3,29.87,SW,216,0.0,1.0,70,0.00,,---,0.00,VWS V15.00,2017-12-16 14:31:00,
2017-12-16 09:36:00,15.6,7.9,29.87,SW,217,0.0,0.0,71,0.00,,---,0.00,VWS V15.00,2017-12-16 14:36:00,
2017-12-16 09:37:00,15.8,8.1,29.87,SW,217,0.0,0.0,71,0.00,,---,0.00,VWS V15.00,2017-12-16 14:37:00,
2017-12-16 09:42:00,16.6,8.2,29.87,SW,218,0.0,1.0,69,0.00,,---,0.00,VWS V15.00,2017-12-16 14:42:00,
2017-12-16 09:44:00,17.0,8.6,29.87,SSW,200,0.0,1.0,69,0.00,,---,0.00,VWS V15.00,2017-12-16 14:44:00,
2017-12-16 09:49:00,18.0,8.6,29.87,SSW,213,1.0,1.0,66,0.00,,---,0.00,VWS V15.00,2017-12-16 14:49:00,
2017-12-16 09:52:00,18.1,8.3,29.87,South,177,0.0,1.0,65,0.00,,---,0.00,VWS V15.00,2017-12-16 14:52:00,
2017-12-16 09:57:00,18.5,8.7,29.87,SSE,155,0.0,1.0,65,0.00,,---,0.00,VWS V15.00,2017-12-16 14:57:00,
2017-12-16 10:02:00,19.5,9.3,29.87,ESE,119,1.0,2.0,64,0.00,,---,0.00,VWS V15.00,2017-12-16 15:02:00,
2017-12-16 10:07:00,20.2,9.6,29.87,SE,135,0.0,1.0,63,0.00,,---,0.00,VWS V15.00,2017-12-16 15:07:00,
2017-12-16 10:12:00,20.7,9.4,29.86,SE,129,1.0,2.0,61,0.00,,---,0.00,VWS V15.00,2017-12-16 15:12:00,
2017-12-16 10:13:00,20.8,9.5,29.86,SSE,158,1.0,2.0,61,0.00,,---,0.00,VWS V15.00,2017-12-16 15:13:00,
2017-12-16 10:18:00,21.5,10.1,29.86,WSW,256,1.0,2.0,61,0.00,,---,0.00,VWS V15.00,2017-12-16 15:18:00,
2017-12-16 10:22:00,21.7,10.3,29.86,WSW,239,1.0,3.0,61,0.00,,---,0.00,VWS V15.00,2017-12-16 15:22:00,
2017-12-16 10:25:00,21.8,10.1,29.86,SE,130,1.0,4.0,60,0.00,,---,0.00,VWS V15.00,2017-12-16 15:25:00,
2017-12-16 10:31:00,22.4,11.0,29.86,SW,227,1.0,4.0,61,0.00,,---,0.00,VWS V15.00,2017-12-16 15:31:00,
2017-12-16 10:37:00,23.2,11.8,29.86,SW,226,3.0,3.0,61,0.00,,---,0.00,VWS V15.00,2017-12-16 15:37:00,
2017-12-16 10:39:00,23.0,11.2,29.86,SSW,197,0.0,4.0,60,0.00,,---,0.00,VWS V15.00,2017-12-16 15:39:00,
2017-12-16 10:49:00,24.5,12.2,29.85,SSE,159,1.0,3.0,59,0.00,,---,0.00,VWS V15.00,2017-12-16 15:49:00,
2017-12-16 10:51:00,24.8,12.5,29.85,SW,226,0.0,3.0,59,0.00,,---,0.00,VWS V15.00,2017-12-16 15:51:00,
2017-12-16 10:56:00,25.6,12.9,29.85,SE,136,0.0,3.0,58,0.00,,---,0.00,VWS V15.00,2017-12-16 15:56:00,
2017-12-16 11:00:00,26.1,13.0,29.85,SW,232,5.0,14.0,57,0.00,,---,0.00,VWS V15.00,2017-12-16 16:00:00,
2017-12-16 11:06:00,26.4,12.8,29.85,SW,226,3.0,7.0,56,0.00,,---,0.00,VWS V15.00,2017-12-16 16:06:00,
2017-12-16 11:08:00,26.7,13.9,29.85,NW,320,2.0,7.0,58,0.00,,---,0.00,VWS V15.00,2017-12-16 16:08:00,
2017-12-16 11:13:00,27.2,13.6,29.85,SSW,195,4.0,10.0,56,0.00,,---,0.00,VWS V15.00,2017-12-16 16:13:00,
2017-12-16 11:18:00,27.3,13.7,29.85,SW,230,4.0,8.0,56,0.00,,---,0.00,VWS V15.00,2017-12-16 16:18:00,
2017-12-16 11:23:00,27.3,13.7,29.85,West,269,6.0,10.0,56,0.00,,---,0.00,VWS V15.00,2017-12-16 16:23:00,
2017-12-16 11:28:00,26.7,13.5,29.85,WSW,238,5.0,7.0,57,0.00,,---,0.00,VWS V15.00,2017-12-16 16:28:00,
2017-12-16 11:30:00,26.5,13.3,29.85,West,263,0.0,7.0,57,0.00,,---,0.00,VWS V15.00,2017-12-16 16:30:00,
2017-12-16 11:35:00,26.5,13.3,29.85,WNW,293,7.0,10.0,57,0.00,,---,0.00,VWS V15.00,2017-12-16 16:35:00,
2017-12-16 11:36:00,26.4,13.2,29.85,NW,325,5.0,10.0,57,0.00,,---,0.00,VWS V15.00,2017-12-16 16:36:00,
2017-12-16 11:41:00,26.3,13.6,29.85,WNW,290,3.0,10.0,58,0.00,,---,0.00,VWS V15.00,2017-12-16 16:41:00,
2017-12-16 11:46:00,26.1,13.4,29.85,WNW,301,0.0,6.0,58,0.00,,---,0.00,VWS V15.00,2017-12-16 16:46:00,
2017-12-16 11:50:00,26.1,13.4,29.85,SW,227,2.0,6.0,58,0.00,,---,0.00,VWS V15.00,2017-12-16 16:50:00,
2017-12-16 11:55:00,26.1,13.4,29.85,ENE,60,1.0,8.0,58,0.00,,---,0.00,VWS V15.00,2017-12-16 16:55:00,
2017-12-16 12:01:00,25.9,13.2,29.85,WNW,295,0.0,9.0,58,0.00,,---,0.00,VWS V15.00,2017-12-16 17:01:00,
2017-12-16 12:06:00,26.0,13.3,29.85,WSW,242,8.0,8.0,58,0.00,,---,0.00,VWS V15.00,2017-12-16 17:06:00,
2017-12-16 12:11:00,26.1,13.8,29.85,SW,226,3.0,11.0,59,0.00,,---,0.00,VWS V15.00,2017-12-16 17:11:00,
2017-12-16 12:16:00,26.3,13.6,29.85,West,270,1.0,3.0,58,0.00,,---,0.00,VWS V15.00,2017-12-16 17:16:00,
2017-12-16 12:21:00,26.9,14.1,29.85,WNW,282,7.0,7.0,58,0.00,,---,0.00,VWS V15.00,2017-12-16 17:21:00,
2017-12-16 12:24:00,26.7,13.9,29.85,NE,53,6.0,8.0,58,0.00,,---,0.00,VWS V15.00,2017-12-16 17:24:00,
2017-12-16 12:27:00,26.8,14.0,29.85,NNW,340,4.0,14.0,58,0.00,,---,0.00,VWS V15.00,2017-12-16 17:27:00,
2017-12-16 12:33:00,26.7,14.3,29.85,North,10,3.0,14.0,59,0.00,,---,0.00,VWS V15.00,2017-12-16 17:33:00,
2017-12-16 12:36:00,26.3,13.6,29.85,WSW,249,8.0,8.0,58,0.00,,---,0.00,VWS V15.00,2017-12-16 17:36:00,
2017-12-16 12:41:00,26.2,13.8,29.85,West,269,3.0,8.0,59,0.00,,---,0.00,VWS V15.00,2017-12-16 17:41:00,
2017-12-16 12:46:00,26.3,13.6,29.85,West,264,1.0,5.0,58,0.00,,---,0.00,VWS V15.00,2017-12-16 17:46:00,
2017-12-16 12:52:00,26.4,13.6,29.85,WNW,288,5.0,7.0,58,0.00,,---,0.00,VWS V15.00,2017-12-16 17:52:00,
2017-12-16 12:57:00,26.2,13.4,29.85,SW,226,1.0,14.0,58,0.00,,---,0.00,VWS V15.00,2017-12-16 17:57:00,
2017-12-16 13:02:00,26.1,13.4,29.85,West,264,2.0,14.0,58,0.00,,---,0.00,VWS V15.00,2017-12-16 18:02:00,
2017-12-16 13:04:00,26.1,13.4,29.85,West,271,0.0,14.0,58,0.00,,---,0.00,VWS V15.00,2017-12-16 18:04:00,
2017-12-16 13:09:00,25.9,13.6,29.85,WNW,285,2.0,7.0,59,0.00,,---,0.00,VWS V15.00,2017-12-16 18:09:00,
2017-12-16 13:14:00,25.5,13.9,29.85,NW,320,1.0,8.0,61,0.00,,---,0.00,VWS V15.00,2017-12-16 18:14:00,
2017-12-16 13:19:00,25.3,14.1,29.85,ESE,120,2.0,7.0,62,0.00,,---,0.00,VWS V15.00,2017-12-16 18:19:00,
2017-12-16 13:24:00,25.3,14.5,29.85,West,278,0.0,9.0,63,0.00,,---,0.00,VWS V15.00,2017-12-16 18:24:00,
2017-12-16 13:29:00,25.3,14.1,29.85,WSW,248,8.0,8.0,62,0.00,,---,0.00,VWS V15.00,2017-12-16 18:29:00,
2017-12-16 13:34:00,25.0,13.8,29.85,ESE,115,0.0,1.0,62,0.00,,---,0.00,VWS V15.00,2017-12-16 18:34:00,
2017-12-16 13:40:00,25.1,13.9,29.86,SE,141,0.0,7.0,62,0.00,,---,0.00,VWS V15.00,2017-12-16 18:40:00,
2017-12-16 13:45:00,25.2,13.6,29.86,West,281,1.0,3.0,61,0.00,,---,0.00,VWS V15.00,2017-12-16 18:45:00,
2017-12-16 13:50:00,25.5,13.9,29.86,SSW,212,3.0,6.0,61,0.00,,---,0.00,VWS V15.00,2017-12-16 18:50:00,
2017-12-16 13:52:00,25.5,13.9,29.86,WNW,297,3.0,6.0,61,0.00,,---,0.00,VWS V15.00,2017-12-16 18:52:00,
2017-12-16 13:55:00,25.3,13.8,29.87,SE,124,1.0,4.0,61,0.00,,---,0.00,VWS V15.00,2017-12-16 18:55:00,
2017-12-16 14:00:00,25.2,13.6,29.87,NW,306,4.0,8.0,61,0.00,,---,0.00,VWS V15.00,2017-12-16 19:00:00,
2017-12-16 14:01:00,25.1,13.6,29.87,SW,214,5.0,8.0,61,0.00,,---,0.00,VWS V15.00,2017-12-16 19:01:00,
2017-12-16 14:06:00,25.0,14.2,29.87,SW,233,2.0,4.0,63,0.00,,---,0.00,VWS V15.00,2017-12-16 19:06:00,
2017-12-16 14:09:00,24.9,13.7,29.87,SSW,201,0.0,4.0,62,0.00,,---,0.00,VWS V15.00,2017-12-16 19:09:00,
2017-12-16 14:14:00,24.8,14.0,29.87,NNE,23,0.0,0.0,63,0.00,,---,0.00,VWS V15.00,2017-12-16 19:14:00,
2017-12-16 14:16:00,24.8,14.0,29.88,SW,228,1.0,1.0,63,0.00,,---,0.00,VWS V15.00,2017-12-16 19:16:00,
2017-12-16 14:21:00,24.8,14.0,29.88,ESE,102,0.0,3.0,63,0.00,,---,0.00,VWS V15.00,2017-12-16 19:21:00,
2017-12-16 14:26:00,24.6,14.2,29.88,NNE,26,3.0,3.0,64,0.00,,---,0.00,VWS V15.00,2017-12-16 19:26:00,
2017-12-16 14:28:00,24.4,14.0,29.88,SW,220,0.0,3.0,64,0.00,,---,0.00,VWS V15.00,2017-12-16 19:28:00,
2017-12-16 14:33:00,24.3,13.9,29.88,SSW,202,2.0,3.0,64,0.00,,---,0.00,VWS V15.00,2017-12-16 19:33:00,
2017-12-16 14:35:00,24.3,13.9,29.88,West,279,4.0,4.0,64,0.00,,---,0.00,VWS V15.00,2017-12-16 19:35:00,
2017-12-16 14:40:00,24.3,13.5,29.89,SW,234,0.0,6.0,63,0.00,,---,0.00,VWS V15.00,2017-12-16 19:40:00,
2017-12-16 14:45:00,24.3,13.9,29.89,SSW,213,0.0,1.0,64,0.00,,---,0.00,VWS V15.00,2017-12-16 19:45:00,
2017-12-16 14:48:00,24.3,13.9,29.89,WSW,242,1.0,1.0,64,0.00,,---,0.00,VWS V15.00,2017-12-16 19:48:00,
2017-12-16 14:52:00,24.3,13.5,29.89,SSW,210,0.0,2.0,63,0.00,,---,0.00,VWS V15.00,2017-12-16 19:52:00,
2017-12-16 14:57:00,24.2,13.4,29.89,WSW,248,1.0,4.0,63,0.00,,---,0.00,VWS V15.00,2017-12-16 19:57:00,
2017-12-16 14:58:00,24.2,13.4,29.89,SW,223,2.0,4.0,63,0.00,,---,0.00,VWS V15.00,2017-12-16 19:58:00,
2017-12-16 15:03:00,24.1,13.3,29.89,SSW,205,0.0,4.0,63,0.00,,---,0.00,VWS V15.00,2017-12-16 20:03:00,
2017-12-16 15:08:00,24.0,12.9,29.89,SW,221,3.0,5.0,62,0.00,,---,0.00,VWS V15.00,2017-12-16 20:08:00,
2017-12-16 15:13:00,24.0,12.1,29.90,SSW,209,1.0,5.0,60,0.00,,---,0.00,VWS V15.00,2017-12-16 20:13:00,
2017-12-16 15:18:00,24.0,11.8,29.90,SE,145,0.0,2.0,59,0.00,,---,0.00,VWS V15.00,2017-12-16 20:18:00,
2017-12-16 15:23:00,24.0,11.8,29.90,SW,221,3.0,4.0,59,0.00,,---,0.00,VWS V15.00,2017-12-16 20:23:00,
2017-12-16 15:24:00,23.9,11.7,29.90,South,188,1.0,4.0,59,0.00,,---,0.00,VWS V15.00,2017-12-16 20:24:00,
2017-12-16 15:29:00,24.0,11.8,29.91,WSW,247,3.0,5.0,59,0.00,,---,0.00,VWS V15.00,2017-12-16 20:29:00,
2017-12-16 15:33:00,24.0,12.1,29.91,WNW,283,1.0,5.0,60,0.00,,---,0.00,VWS V15.00,2017-12-16 20:33:00,
2017-12-16 15:44:00,23.0,14.7,29.91,NW,304,0.0,5.0,70,0.00,,---,0.00,VWS V15.00,2017-12-16 20:44:00,
2017-12-16 15:49:00,22.8,14.8,29.91,West,269,0.0,4.0,71,0.00,,---,0.00,VWS V15.00,2017-12-16 20:49:00,
2017-12-16 15:54:00,22.6,14.9,29.91,West,269,0.0,0.0,72,0.00,,---,0.00,VWS V15.00,2017-12-16 20:54:00,
2017-12-16 15:59:00,22.5,14.9,29.91,West,269,0.0,1.0,72,0.00,,---,0.00,VWS V15.00,2017-12-16 20:59:00,
2017-12-16 16:04:00,22.3,15.0,29.92,WNW,293,0.0,0.0,73,0.00,,---,0.00,VWS V15.00,2017-12-16 21:04:00,
2017-12-16 16:10:00,22.2,14.9,29.92,NW,304,0.0,0.0,73,0.00,,---,0.00,VWS V15.00,2017-12-16 21:10:00,
2017-12-16 16:21:00,21.8,15.1,29.92,West,261,1.0,2.0,75,0.00,,---,0.00,VWS V15.00,2017-12-16 21:21:00,
2017-12-16 16:26:00,21.6,15.5,29.93,NW,313,5.0,10.0,77,0.00,,---,0.00,VWS V15.00,2017-12-16 21:26:00,
2017-12-16 16:28:00,21.2,16.3,29.94,West,276,2.0,14.0,81,0.00,,---,0.00,VWS V15.00,2017-12-16 21:28:00,
2017-12-16 16:33:00,20.3,16.8,29.96,SSW,212,2.0,14.0,86,0.00,,---,0.00,VWS V15.00,2017-12-16 21:33:00,
2017-12-16 16:39:00,20.1,16.9,29.96,NNW,338,1.0,3.0,87,0.00,,---,0.00,VWS V15.00,2017-12-16 21:39:00,
2017-12-16 16:44:00,19.8,16.8,29.97,WSW,248,0.0,4.0,88,0.00,,---,0.00,VWS V15.00,2017-12-16 21:44:00,
2017-12-16 16:47:00,19.7,16.7,29.97,WSW,249,3.0,3.0,88,0.00,,---,0.00,VWS V15.00,2017-12-16 21:47:00,
2017-12-16 16:52:00,19.3,16.3,29.97,ESE,108,0.0,7.0,88,0.00,,---,0.00,VWS V15.00,2017-12-16 21:52:00,
2017-12-16 16:57:00,19.1,16.1,29.96,West,281,0.0,4.0,88,0.00,,---,0.00,VWS V15.00,2017-12-16 21:57:00,
2017-12-16 17:02:00,18.9,15.9,29.97,SSE,160,0.0,4.0,88,0.00,,---,0.00,VWS V15.00,2017-12-16 22:02:00,
2017-12-16 17:06:00,18.8,15.6,29.97,WNW,295,1.0,3.0,87,0.00,,---,0.00,VWS V15.00,2017-12-16 22:06:00,
2017-12-16 17:11:00,18.7,14.7,29.97,ESE,105,0.0,8.0,84,0.00,,---,0.00,VWS V15.00,2017-12-16 22:11:00,
2017-12-16 17:12:00,18.7,14.4,29.97,SSE,158,5.0,8.0,83,0.00,,---,0.00,VWS V15.00,2017-12-16 22:12:00,
2017-12-16 17:18:00,18.9,13.2,29.97,South,188,0.0,8.0,78,0.00,,---,0.00,VWS V15.00,2017-12-16 22:18:00,
2017-12-16 17:21:00,19.0,12.1,29.98,WNW,292,2.0,8.0,74,0.00,,---,0.00,VWS V15.00,2017-12-16 22:21:00,
2017-12-16 17:26:00,19.2,11.0,29.99,WSW,256,0.0,4.0,70,0.00,,---,0.00,VWS V15.00,2017-12-16 22:26:00,
2017-12-16 17:31:00,19.2,10.1,29.98,SSE,165,2.0,6.0,67,0.00,,---,0.00,VWS V15.00,2017-12-16 22:31:00,
2017-12-16 17:41:00,19.2,9.7,30.00,South,186,1.0,10.0,66,0.00,,---,0.00,VWS V15.00,2017-12-16 22:41:00,
2017-12-16 17:42:00,19.2,9.4,30.00,NW,309,3.0,10.0,65,0.00,,---,0.00,VWS V15.00,2017-12-16 22:42:00,
2017-12-16 17:47:00,19.2,9.7,30.01,SSE,160,3.0,6.0,66,0.00,,---,0.00,VWS V15.00,2017-12-16 22:47:00,
2017-12-16 17:48:00,19.2,9.4,30.01,SSE,162,2.0,6.0,65,0.00,,---,0.00,VWS V15.00,2017-12-16 22:48:00,